createdAt,value
2022-11-17T00:00:42.805Z,0
2022-11-17T00:01:42.903Z,0
2022-11-17T00:02:43.444Z,0
2022-11-17T00:03:43.585Z,0
2022-11-17T00:04:43.726Z,0
2022-11-17T00:05:44.160Z,0
2022-11-17T00:06:43.980Z,0.8
2022-11-17T00:07:44.084Z,0
2022-11-17T00:08:44.287Z,0
2022-11-17T00:09:44.517Z,0
2022-11-17T00:10:44.586Z,0
2022-11-17T00:11:44.694Z,0
2022-11-17T00:12:44.844Z,0
2022-11-17T00:13:45.056Z,0
2022-11-17T00:14:45.394Z,0
2022-11-17T00:15:44.929Z,0
2022-11-17T00:16:45.397Z,0
2022-11-17T00:17:45.544Z,0
2022-11-17T00:18:45.700Z,0
2022-11-17T00:19:45.850Z,0
2022-11-17T00:20:45.909Z,0
2022-11-17T00:21:45.677Z,0
2022-11-17T00:22:45.831Z,0
2022-11-17T00:23:45.991Z,0
2022-11-17T00:24:46.127Z,0
2022-11-17T00:25:46.278Z,0
2022-11-17T00:26:46.413Z,0
2022-11-17T00:27:46.550Z,0
2022-11-17T00:28:47.067Z,0
2022-11-17T00:29:47.476Z,0
2022-11-17T00:30:52.034Z,0
2022-11-17T00:31:47.455Z,0
2022-11-17T00:32:47.614Z,0
2022-11-17T00:33:47.741Z,0
2022-11-17T00:34:47.877Z,0
2022-11-17T00:35:48.003Z,0
2022-11-17T00:36:48.074Z,0
2022-11-17T00:37:48.280Z,0
2022-11-17T00:38:48.067Z,0
2022-11-17T00:39:48.576Z,0
2022-11-17T00:40:48.665Z,0
2022-11-17T00:41:48.449Z,0
2022-11-17T00:42:48.890Z,0
2022-11-17T00:43:48.996Z,0
2022-11-17T00:44:49.447Z,0
2022-11-17T00:45:48.920Z,0
2022-11-17T00:46:49.495Z,0
2022-11-17T00:47:49.599Z,0
2022-11-17T00:48:49.399Z,0
2022-11-17T00:49:49.482Z,0
2022-11-17T00:50:49.649Z,0
2022-11-17T00:51:49.838Z,0
2022-11-17T00:52:49.937Z,0
2022-11-17T00:53:50.087Z,0
2022-11-17T00:54:50.238Z,0
2022-11-17T00:55:50.439Z,0
2022-11-17T00:56:50.551Z,0
2022-11-17T00:57:50.691Z,0
2022-11-17T00:58:50.844Z,0
2022-11-17T00:59:51.569Z,0
2022-11-17T01:00:51.624Z,0
2022-11-17T01:01:51.844Z,0
2022-11-17T01:02:51.929Z,0
2022-11-17T01:03:52.082Z,0
2022-11-17T01:04:52.275Z,0
2022-11-17T01:05:52.374Z,0
2022-11-17T01:06:52.552Z,0
2022-11-17T01:07:52.589Z,0
2022-11-17T01:08:52.712Z,0
2022-11-17T01:09:52.932Z,0
2022-11-17T01:10:53.014Z,0
2022-11-17T01:11:53.188Z,0
2022-11-17T01:12:53.707Z,0
2022-11-17T01:13:53.467Z,0
2022-11-17T01:14:53.937Z,0
2022-11-17T01:15:53.412Z,0
2022-11-17T01:16:54.029Z,0
2022-11-17T01:17:54.100Z,0
2022-11-17T01:18:54.255Z,0
2022-11-17T01:19:54.453Z,0
2022-11-17T01:20:54.541Z,0
2022-11-17T01:21:54.692Z,0
2022-11-17T01:22:54.801Z,0
2022-11-17T01:23:54.938Z,0
2022-11-17T01:24:55.100Z,0
2022-11-17T01:25:55.233Z,0
2022-11-17T01:26:55.405Z,0
2022-11-17T01:27:55.556Z,0
2022-11-17T01:28:55.692Z,0
2022-11-17T01:29:56.112Z,0
2022-11-17T01:30:55.584Z,0
2022-11-17T01:31:55.686Z,0
2022-11-17T01:32:55.842Z,0
2022-11-17T01:33:55.978Z,0
2022-11-17T01:34:56.092Z,0
2022-11-17T01:35:56.262Z,0
2022-11-17T01:36:56.406Z,0
2022-11-17T01:37:56.552Z,0
2022-11-17T01:38:57.117Z,0
2022-11-17T01:39:57.286Z,0
2022-11-17T01:40:56.988Z,0
2022-11-17T01:41:57.090Z,0
2022-11-17T01:42:57.791Z,0
2022-11-17T01:43:57.725Z,0
2022-11-17T01:44:58.094Z,0
2022-11-17T01:45:57.649Z,0
2022-11-17T01:47:00.833Z,0
2022-11-17T01:47:58.289Z,0
2022-11-17T01:48:58.441Z,0
2022-11-17T01:49:58.810Z,0
2022-11-17T01:50:58.801Z,0
2022-11-17T01:51:58.996Z,0
2022-11-17T01:52:59.104Z,0
2022-11-17T01:53:59.204Z,0
2022-11-17T01:54:59.338Z,0
2022-11-17T01:55:59.482Z,0
2022-11-17T01:56:59.604Z,0
2022-11-17T01:57:59.803Z,0
2022-11-17T01:58:59.886Z,0
2022-11-17T02:00:00.265Z,0
2022-11-17T02:00:59.830Z,0
2022-11-17T02:02:00.341Z,0
2022-11-17T02:03:00.465Z,0
2022-11-17T02:04:00.618Z,0
2022-11-17T02:05:00.749Z,0
2022-11-17T02:06:00.921Z,0
2022-11-17T02:07:01.137Z,0
2022-11-17T02:08:01.325Z,0
2022-11-17T02:09:01.426Z,0
2022-11-17T02:10:01.637Z,0
2022-11-17T02:11:01.705Z,0
2022-11-17T02:12:01.851Z,0
2022-11-17T02:13:01.990Z,0
2022-11-17T02:14:02.176Z,0
2022-11-17T02:15:02.474Z,0
2022-11-17T02:16:02.068Z,0
2022-11-17T02:17:09.057Z,0
2022-11-17T02:18:02.702Z,0
2022-11-17T02:19:02.891Z,0
2022-11-17T02:20:03.384Z,0
2022-11-17T02:21:02.753Z,0
2022-11-17T02:22:03.299Z,0
2022-11-17T02:23:03.499Z,0
2022-11-17T02:24:03.661Z,0
2022-11-17T02:25:03.833Z,0
2022-11-17T02:26:03.945Z,0
2022-11-17T02:27:04.079Z,0
2022-11-17T02:28:03.951Z,0
2022-11-17T02:29:04.105Z,0
2022-11-17T02:30:04.796Z,0
2022-11-17T02:31:04.329Z,0
2022-11-17T02:32:04.444Z,0
2022-11-17T02:33:04.958Z,0
2022-11-17T02:34:05.061Z,0
2022-11-17T02:35:05.212Z,0
2022-11-17T02:36:05.362Z,0
2022-11-17T02:37:05.469Z,0
2022-11-17T02:38:05.637Z,0
2022-11-17T02:39:05.864Z,0
2022-11-17T02:40:06.054Z,0
2022-11-17T02:41:06.170Z,0
2022-11-17T02:42:06.277Z,0
2022-11-17T02:43:06.406Z,0
2022-11-17T02:44:06.580Z,0
2022-11-17T02:45:06.926Z,0
2022-11-17T02:46:06.455Z,0
2022-11-17T02:47:06.916Z,0
2022-11-17T02:48:07.091Z,0
2022-11-17T02:49:07.238Z,0
2022-11-17T02:50:07.438Z,0
2022-11-17T02:51:07.535Z,0
2022-11-17T02:52:07.402Z,0
2022-11-17T02:53:08.113Z,0
2022-11-17T02:54:07.901Z,0
2022-11-17T02:55:08.106Z,0
2022-11-17T02:56:08.331Z,0
2022-11-17T02:57:08.446Z,0
2022-11-17T02:58:08.605Z,0
2022-11-17T02:59:08.733Z,0
2022-11-17T03:00:09.136Z,0
2022-11-17T03:01:08.679Z,0
2022-11-17T03:02:09.280Z,0
2022-11-17T03:03:09.367Z,0
2022-11-17T03:04:09.386Z,0
2022-11-17T03:05:10.046Z,0
2022-11-17T03:06:10.128Z,0
2022-11-17T03:07:09.862Z,0
2022-11-17T03:08:10.216Z,0
2022-11-17T03:09:10.317Z,0
2022-11-17T03:10:10.266Z,0
2022-11-17T03:11:10.369Z,0
2022-11-17T03:12:10.528Z,0
2022-11-17T03:13:10.677Z,0
2022-11-17T03:14:10.827Z,0
2022-11-17T03:15:11.878Z,0
2022-11-17T03:16:10.711Z,0
2022-11-17T03:17:11.330Z,0
2022-11-17T03:18:11.055Z,0
2022-11-17T03:19:11.167Z,0
2022-11-17T03:20:11.730Z,0
2022-11-17T03:21:11.933Z,0
2022-11-17T03:22:12.032Z,0
2022-11-17T03:23:12.298Z,0
2022-11-17T03:24:12.292Z,0
2022-11-17T03:25:12.040Z,0
2022-11-17T03:26:12.542Z,0
2022-11-17T03:27:12.743Z,0
2022-11-17T03:28:12.843Z,0
2022-11-17T03:29:12.964Z,0
2022-11-17T03:30:13.415Z,0
2022-11-17T03:31:12.830Z,0
2022-11-17T03:32:13.459Z,0
2022-11-17T03:33:13.555Z,0
2022-11-17T03:34:13.668Z,0
2022-11-17T03:35:13.807Z,0
2022-11-17T03:36:13.907Z,0
2022-11-17T03:37:14.013Z,0
2022-11-17T03:38:14.126Z,0
2022-11-17T03:39:14.321Z,0
2022-11-17T03:40:14.479Z,0
2022-11-17T03:41:14.544Z,0
2022-11-17T03:42:14.721Z,0
2022-11-17T03:43:14.854Z,0
2022-11-17T03:44:15.021Z,0
2022-11-17T03:45:15.359Z,0
2022-11-17T03:46:14.959Z,0
2022-11-17T03:47:15.525Z,0
2022-11-17T03:48:15.735Z,0
2022-11-17T03:49:15.892Z,0
2022-11-17T03:50:16.032Z,0
2022-11-17T03:51:16.130Z,0
2022-11-17T03:52:16.287Z,0
2022-11-17T03:53:16.380Z,0
2022-11-17T03:54:16.534Z,0
2022-11-17T03:55:16.636Z,0
2022-11-17T03:56:16.846Z,0
2022-11-17T03:57:16.986Z,0
2022-11-17T03:58:16.789Z,0
2022-11-17T03:59:17.208Z,0
2022-11-17T04:00:17.608Z,0
2022-11-17T04:01:17.952Z,0
2022-11-17T04:02:17.678Z,0
2022-11-17T04:03:17.852Z,0
2022-11-17T04:04:18.001Z,0
2022-11-17T04:05:18.205Z,0
2022-11-17T04:06:18.338Z,0
2022-11-17T04:07:18.497Z,0
2022-11-17T04:08:18.610Z,0
2022-11-17T04:09:22.999Z,0
2022-11-17T04:10:18.909Z,0
2022-11-17T04:11:18.951Z,0
2022-11-17T04:12:19.116Z,0
2022-11-17T04:13:19.263Z,0
2022-11-17T04:14:19.412Z,0
2022-11-17T04:15:19.774Z,0
2022-11-17T04:16:19.345Z,0
2022-11-17T04:17:19.892Z,0
2022-11-17T04:18:20.022Z,0
2022-11-17T04:19:20.182Z,0
2022-11-17T04:20:20.425Z,0
2022-11-17T04:21:20.587Z,0
2022-11-17T04:22:20.299Z,0
2022-11-17T04:23:20.841Z,0
2022-11-17T04:24:20.941Z,0
2022-11-17T04:25:21.412Z,0
2022-11-17T04:26:21.217Z,0
2022-11-17T04:27:21.338Z,0
2022-11-17T04:28:21.501Z,0
2022-11-17T04:29:21.644Z,0
2022-11-17T04:30:22.023Z,0
2022-11-17T04:31:21.575Z,0
2022-11-17T04:32:22.494Z,0
2022-11-17T04:33:22.250Z,0
2022-11-17T04:34:22.360Z,0
2022-11-17T04:35:22.504Z,0
2022-11-17T04:36:22.655Z,0
2022-11-17T04:37:22.910Z,0
2022-11-17T04:38:23.104Z,0
2022-11-17T04:39:23.181Z,0
2022-11-17T04:40:23.327Z,0
2022-11-17T04:41:23.410Z,0
2022-11-17T04:42:23.843Z,0
2022-11-17T04:43:23.727Z,0
2022-11-17T04:44:23.871Z,0
2022-11-17T04:45:24.127Z,0
2022-11-17T04:46:23.802Z,0
2022-11-17T04:47:24.297Z,0
2022-11-17T04:48:24.469Z,0
2022-11-17T04:49:24.609Z,0
2022-11-17T04:50:24.824Z,0
2022-11-17T04:51:24.925Z,0
2022-11-17T04:52:29.537Z,0
2022-11-17T04:53:25.277Z,0
2022-11-17T04:54:25.482Z,0
2022-11-17T04:55:25.549Z,0
2022-11-17T04:56:25.644Z,0
2022-11-17T04:57:25.788Z,0
2022-11-17T04:58:25.933Z,0
2022-11-17T04:59:26.093Z,0
2022-11-17T05:00:26.416Z,0
2022-11-17T05:01:25.970Z,0
2022-11-17T05:02:26.550Z,0
2022-11-17T05:03:26.647Z,0
2022-11-17T05:04:26.851Z,0
2022-11-17T05:05:26.620Z,0
2022-11-17T05:06:27.076Z,0
2022-11-17T05:07:27.225Z,0
2022-11-17T05:08:27.363Z,0
2022-11-17T05:09:27.561Z,0
2022-11-17T05:10:27.811Z,0
2022-11-17T05:11:27.977Z,0
2022-11-17T05:12:28.018Z,0
2022-11-17T05:13:28.113Z,0
2022-11-17T05:14:28.267Z,0
2022-11-17T05:15:28.910Z,0
2022-11-17T05:16:28.191Z,0
2022-11-17T05:17:28.325Z,0
2022-11-17T05:18:28.444Z,0
2022-11-17T05:19:28.952Z,0
2022-11-17T05:20:29.171Z,0
2022-11-17T05:21:29.268Z,0
2022-11-17T05:22:29.363Z,0
2022-11-17T05:23:29.485Z,0
2022-11-17T05:24:29.666Z,0
2022-11-17T05:25:29.841Z,0
2022-11-17T05:26:29.993Z,0
2022-11-17T05:27:30.146Z,0
2022-11-17T05:28:30.288Z,0
2022-11-17T05:29:30.594Z,0
2022-11-17T05:30:30.888Z,0
2022-11-17T05:31:30.394Z,0
2022-11-17T05:32:30.902Z,0
2022-11-17T05:33:34.982Z,1.44
2022-11-17T05:34:31.146Z,0
2022-11-17T05:35:31.300Z,1.04
2022-11-17T05:36:31.514Z,0
2022-11-17T05:37:31.621Z,0
2022-11-17T05:38:31.380Z,0
2022-11-17T05:39:31.855Z,0
2022-11-17T05:40:31.580Z,0
2022-11-17T05:41:32.286Z,0
2022-11-17T05:42:32.436Z,0
2022-11-17T05:43:33.023Z,0
2022-11-17T05:44:32.335Z,0
2022-11-17T05:45:33.229Z,0
2022-11-17T05:46:33.026Z,0
2022-11-17T05:47:33.168Z,0
2022-11-17T05:48:33.270Z,0
2022-11-17T05:49:33.435Z,0
2022-11-17T05:50:33.579Z,0
2022-11-17T05:51:33.777Z,0
2022-11-17T05:52:33.870Z,0
2022-11-17T05:53:34.295Z,0
2022-11-17T05:54:34.125Z,0
2022-11-17T05:55:34.282Z,0
2022-11-17T05:56:34.418Z,0
2022-11-17T05:57:34.633Z,0
2022-11-17T05:58:34.785Z,0
2022-11-17T05:59:35.188Z,0
2022-11-17T06:00:34.625Z,0
2022-11-17T06:01:35.216Z,0
2022-11-17T06:02:35.344Z,0
2022-11-17T06:03:35.600Z,0
2022-11-17T06:04:35.622Z,0
2022-11-17T06:05:35.284Z,0
2022-11-17T06:06:35.428Z,0
2022-11-17T06:07:35.699Z,0
2022-11-17T06:08:35.727Z,0
2022-11-17T06:09:35.888Z,0
2022-11-17T06:10:36.034Z,0
2022-11-17T06:11:36.184Z,0
2022-11-17T06:12:36.331Z,0
2022-11-17T06:13:36.627Z,0
2022-11-17T06:14:36.970Z,0
2022-11-17T06:15:36.693Z,0
2022-11-17T06:16:36.780Z,0
2022-11-17T06:17:36.888Z,0
2022-11-17T06:18:36.989Z,0
2022-11-17T06:19:37.096Z,0
2022-11-17T06:20:37.212Z,0
2022-11-17T06:21:56.777Z,0
2022-11-17T06:22:37.501Z,0
2022-11-17T06:23:37.837Z,1.04
2022-11-17T06:24:37.746Z,1.6
2022-11-17T06:25:37.852Z,0
2022-11-17T06:26:37.957Z,0
2022-11-17T06:27:38.053Z,0
2022-11-17T06:28:38.167Z,0
2022-11-17T06:29:43.804Z,0
2022-11-17T06:30:38.420Z,0
2022-11-17T06:31:38.557Z,0
2022-11-17T06:32:38.721Z,1.44
2022-11-17T06:33:38.962Z,1.04
2022-11-17T06:34:38.961Z,0
2022-11-17T06:35:39.117Z,0.8
2022-11-17T06:36:39.222Z,0
2022-11-17T06:37:39.378Z,0
2022-11-17T06:38:39.484Z,1.2
2022-11-17T06:39:40.050Z,0
2022-11-17T06:40:39.728Z,0
2022-11-17T06:41:39.894Z,0
2022-11-17T06:42:39.981Z,0
2022-11-17T06:43:40.086Z,0
2022-11-17T06:44:40.965Z,0
2022-11-17T06:45:40.363Z,0
2022-11-17T06:46:42.681Z,0
2022-11-17T06:47:40.553Z,0
2022-11-17T06:48:40.685Z,0
2022-11-17T06:49:41.348Z,0
2022-11-17T06:50:40.957Z,0
2022-11-17T06:51:45.094Z,0
2022-11-17T06:52:41.203Z,0
2022-11-17T06:53:41.285Z,1.44
2022-11-17T06:54:41.465Z,0
2022-11-17T06:55:41.641Z,0
2022-11-17T06:56:41.745Z,0.8
2022-11-17T06:57:41.915Z,1.04
2022-11-17T06:58:42.066Z,0
2022-11-17T06:59:42.637Z,0
2022-11-17T07:00:42.365Z,0
2022-11-17T07:01:42.408Z,0
2022-11-17T07:02:43.038Z,1.04
2022-11-17T07:03:42.711Z,0
2022-11-17T07:04:42.868Z,0
2022-11-17T07:05:43.018Z,0
2022-11-17T07:06:43.165Z,1.04
2022-11-17T07:07:43.318Z,0
2022-11-17T07:08:43.417Z,0
2022-11-17T07:09:43.523Z,0
2022-11-17T07:10:48.026Z,0
2022-11-17T07:11:43.730Z,0
2022-11-17T07:12:43.821Z,1.44
2022-11-17T07:13:43.946Z,1.04
2022-11-17T07:14:44.460Z,1.2
2022-11-17T07:15:44.233Z,0
2022-11-17T07:16:44.419Z,0
2022-11-17T07:17:45.047Z,0
2022-11-17T07:18:44.744Z,0.8
2022-11-17T07:19:45.470Z,0
2022-11-17T07:20:44.981Z,0
2022-11-17T07:21:45.614Z,0.8
2022-11-17T07:22:45.246Z,0
2022-11-17T07:23:45.358Z,0
2022-11-17T07:24:45.497Z,0
2022-11-17T07:25:45.649Z,0
2022-11-17T07:26:45.743Z,0
2022-11-17T07:27:45.860Z,0
2022-11-17T07:28:46.008Z,0
2022-11-17T07:29:46.479Z,0
2022-11-17T07:30:46.270Z,0
2022-11-17T07:31:46.404Z,0
2022-11-17T07:32:49.495Z,0
2022-11-17T07:33:46.670Z,0
2022-11-17T07:34:46.853Z,0
2022-11-17T07:35:47.676Z,0
2022-11-17T07:36:47.127Z,0
2022-11-17T07:37:47.259Z,0.64
2022-11-17T07:38:47.408Z,0
2022-11-17T07:39:48.042Z,0
2022-11-17T07:40:48.064Z,0
2022-11-17T07:41:48.304Z,0
2022-11-17T07:42:48.116Z,0
2022-11-17T07:43:48.785Z,0
2022-11-17T07:44:49.014Z,0
2022-11-17T07:45:48.392Z,0
2022-11-17T07:46:48.907Z,0
2022-11-17T07:47:49.203Z,1.6
2022-11-17T07:48:49.480Z,0
2022-11-17T07:49:49.522Z,0
2022-11-17T07:50:49.960Z,0
2022-11-17T07:51:49.302Z,0.8
2022-11-17T07:52:49.892Z,0
2022-11-17T07:53:50.025Z,0
2022-11-17T07:54:50.129Z,0
2022-11-17T07:55:50.258Z,0
2022-11-17T07:56:50.523Z,0
2022-11-17T07:57:50.611Z,0
2022-11-17T07:58:50.707Z,0
2022-11-17T07:59:51.185Z,1.2
2022-11-17T08:00:50.726Z,0
2022-11-17T08:01:50.770Z,1.2
2022-11-17T08:02:51.422Z,0
2022-11-17T08:03:51.540Z,1.04
2022-11-17T08:04:51.635Z,0
2022-11-17T08:05:51.459Z,0
2022-11-17T08:06:51.996Z,2
2022-11-17T08:07:52.127Z,1.04
2022-11-17T08:08:52.250Z,2.64
2022-11-17T08:09:52.344Z,0
2022-11-17T08:10:52.475Z,2.24
2022-11-17T08:11:52.627Z,0.8
2022-11-17T08:12:52.783Z,0.8
2022-11-17T08:13:52.956Z,1.2
2022-11-17T08:14:53.424Z,0.8
2022-11-17T08:15:52.785Z,0
2022-11-17T08:16:53.940Z,1.6
2022-11-17T08:17:53.508Z,1.84
2022-11-17T08:18:53.739Z,1.44
2022-11-17T08:19:53.869Z,1.44
2022-11-17T08:20:53.973Z,1.6
2022-11-17T08:21:54.222Z,1.6
2022-11-17T08:22:53.934Z,2.4
2022-11-17T08:23:54.513Z,2.24
2022-11-17T08:24:54.593Z,1.2
2022-11-17T08:25:54.238Z,1.6
2022-11-17T08:26:54.701Z,0
2022-11-17T08:27:54.925Z,1.2
2022-11-17T08:28:58.302Z,1.6
2022-11-17T08:29:54.845Z,1.2
2022-11-17T08:30:55.559Z,2.64
2022-11-17T08:31:55.058Z,1.44
2022-11-17T08:32:55.583Z,1.2
2022-11-17T08:33:55.422Z,3.84
2022-11-17T08:34:55.546Z,1.6
2022-11-17T08:35:56.115Z,1.44
2022-11-17T08:36:56.141Z,0
2022-11-17T08:37:56.287Z,1.6
2022-11-17T08:38:56.441Z,2.8
2022-11-17T08:39:56.601Z,1.2
2022-11-17T08:40:56.750Z,0
2022-11-17T08:41:56.902Z,0.8
2022-11-17T08:43:00.824Z,1.2
2022-11-17T08:43:57.159Z,1.6
2022-11-17T08:44:57.485Z,0.64
2022-11-17T08:45:57.082Z,1.84
2022-11-17T08:46:57.657Z,0
2022-11-17T08:47:57.751Z,1.04
2022-11-17T08:48:57.856Z,1.2
2022-11-17T08:49:58.011Z,2.24
2022-11-17T08:50:58.163Z,1.04
2022-11-17T08:51:58.392Z,1.04
2022-11-17T08:52:58.466Z,0
2022-11-17T08:53:58.644Z,2.64
2022-11-17T08:54:59.045Z,2
2022-11-17T08:55:59.090Z,1.04
2022-11-17T08:56:59.324Z,1.2
2022-11-17T08:57:59.321Z,1.2
2022-11-17T08:58:59.374Z,2.64
2022-11-17T08:59:59.774Z,1.44
2022-11-17T09:01:03.933Z,0
2022-11-17T09:01:59.671Z,1.44
2022-11-17T09:02:59.403Z,2
2022-11-17T09:03:59.556Z,1.04
2022-11-17T09:05:00.079Z,1.2
2022-11-17T09:06:00.230Z,0.8
2022-11-17T09:07:00.504Z,0.64
2022-11-17T09:08:16.160Z,1.44
2022-11-17T09:09:00.886Z,1.04
2022-11-17T09:10:00.838Z,1.6
2022-11-17T09:11:00.986Z,2.8
2022-11-17T09:12:01.159Z,1.6
2022-11-17T09:13:01.360Z,1.44
2022-11-17T09:14:01.528Z,1.6
2022-11-17T09:15:01.848Z,1.44
2022-11-17T09:16:01.342Z,1.04
2022-11-17T09:17:01.947Z,2.24
2022-11-17T09:18:01.990Z,2.64
2022-11-17T09:19:02.103Z,2
2022-11-17T09:20:02.236Z,1.6
2022-11-17T09:21:02.358Z,1.84
2022-11-17T09:22:02.485Z,1.44
2022-11-17T09:23:02.612Z,1.84
2022-11-17T09:24:02.810Z,2.24
2022-11-17T09:25:02.960Z,2.64
2022-11-17T09:26:03.109Z,2
2022-11-17T09:27:03.278Z,1.44
2022-11-17T09:28:03.366Z,3.84
2022-11-17T09:29:03.573Z,1.6
2022-11-17T09:30:04.065Z,1.44
2022-11-17T09:31:03.524Z,2.24
2022-11-17T09:32:04.030Z,1.04
2022-11-17T09:33:04.161Z,1.6
2022-11-17T09:34:05.716Z,1.84
2022-11-17T09:35:04.415Z,1.6
2022-11-17T09:36:04.143Z,2
2022-11-17T09:37:04.230Z,1.6
2022-11-17T09:38:04.334Z,3.04
2022-11-17T09:39:04.911Z,2.24
2022-11-17T09:40:05.037Z,3.2
2022-11-17T09:41:05.181Z,0.8
2022-11-17T09:42:05.322Z,1.04
2022-11-17T09:43:05.465Z,1.6
2022-11-17T09:44:05.645Z,2.8
2022-11-17T09:45:06.088Z,1.6
2022-11-17T09:46:07.610Z,1.6
2022-11-17T09:47:06.165Z,1.04
2022-11-17T09:48:18.848Z,1.6
2022-11-17T09:49:06.494Z,2
2022-11-17T09:50:06.663Z,2.8
2022-11-17T09:51:06.652Z,1.2
2022-11-17T09:52:06.804Z,1.44
2022-11-17T09:53:06.935Z,1.04
2022-11-17T09:54:07.106Z,2.8
2022-11-17T09:55:07.243Z,1.44
2022-11-17T09:56:07.363Z,2.8
2022-11-17T09:57:07.465Z,1.84
2022-11-17T09:58:07.618Z,0
2022-11-17T09:59:07.818Z,3.2
2022-11-17T10:00:08.125Z,2
2022-11-17T10:01:07.694Z,1.6
2022-11-17T10:02:08.240Z,2.8
2022-11-17T10:03:08.284Z,3.2
2022-11-17T10:04:08.390Z,1.44
2022-11-17T10:05:08.577Z,2
2022-11-17T10:06:08.728Z,1.04
2022-11-17T10:07:09.119Z,1.04
2022-11-17T10:08:08.980Z,1.2
2022-11-17T10:09:09.129Z,1.2
2022-11-17T10:10:09.226Z,1.04
2022-11-17T10:11:09.350Z,1.6
2022-11-17T10:12:09.542Z,2.4
2022-11-17T10:13:09.387Z,0
2022-11-17T10:14:09.842Z,2
2022-11-17T10:15:10.189Z,0.8
2022-11-17T10:16:09.782Z,2.64
2022-11-17T10:17:10.293Z,1.2
2022-11-17T10:18:10.451Z,1.84
2022-11-17T10:19:10.668Z,2
2022-11-17T10:20:10.808Z,1.6
2022-11-17T10:21:10.904Z,1.6
2022-11-17T10:22:11.104Z,2.8
2022-11-17T10:23:11.259Z,2.4
2022-11-17T10:24:11.395Z,2.8
2022-11-17T10:25:11.454Z,0.8
2022-11-17T10:26:11.608Z,1.6
2022-11-17T10:27:11.749Z,3.04
2022-11-17T10:28:11.960Z,2
2022-11-17T10:29:12.120Z,1.84
2022-11-17T10:30:12.417Z,1.2
2022-11-17T10:31:11.942Z,2
2022-11-17T10:32:12.452Z,1.04
2022-11-17T10:33:12.573Z,2.4
2022-11-17T10:34:12.672Z,1.6
2022-11-17T10:35:12.822Z,1.2
2022-11-17T10:36:12.971Z,2
2022-11-17T10:37:13.128Z,1.04
2022-11-17T10:38:13.289Z,1.84
2022-11-17T10:39:17.678Z,3.44
2022-11-17T10:40:13.639Z,1.44
2022-11-17T10:41:13.874Z,2.24
2022-11-17T10:42:13.892Z,2
2022-11-17T10:43:14.040Z,1.2
2022-11-17T10:44:14.172Z,0
2022-11-17T10:45:14.591Z,2.24
2022-11-17T10:46:14.022Z,1.44
2022-11-17T10:47:14.131Z,1.6
2022-11-17T10:48:14.700Z,0
2022-11-17T10:49:14.924Z,0
2022-11-17T10:50:14.550Z,1.04
2022-11-17T10:51:15.148Z,0
2022-11-17T10:52:15.307Z,2.24
2022-11-17T10:53:15.433Z,1.2
2022-11-17T10:54:15.528Z,2
2022-11-17T10:55:15.760Z,1.44
2022-11-17T10:56:15.913Z,1.2
2022-11-17T10:57:16.009Z,2.24
2022-11-17T10:58:16.162Z,2.24
2022-11-17T10:59:16.347Z,2.4
2022-11-17T11:00:16.615Z,2.24
2022-11-17T11:01:16.247Z,1.04
2022-11-17T11:02:16.694Z,1.6
2022-11-17T11:03:16.843Z,4.64
2022-11-17T11:04:17.022Z,1.04
2022-11-17T11:05:17.154Z,2.8
2022-11-17T11:06:17.533Z,1.44
2022-11-17T11:07:17.519Z,2.24
2022-11-17T11:08:17.581Z,1.04
2022-11-17T11:09:17.859Z,1.04
2022-11-17T11:10:17.966Z,0
2022-11-17T11:11:18.140Z,1.04
2022-11-17T11:12:18.289Z,1.44
2022-11-17T11:13:18.415Z,1.44
2022-11-17T11:14:18.564Z,1.44
2022-11-17T11:15:18.887Z,3.2
2022-11-17T11:16:18.466Z,1.2
2022-11-17T11:17:18.972Z,1.2
2022-11-17T11:18:19.095Z,2.64
2022-11-17T11:19:19.328Z,2.64
2022-11-17T11:20:19.124Z,4
2022-11-17T11:21:19.545Z,2.4
2022-11-17T11:22:21.491Z,3.84
2022-11-17T11:23:20.161Z,2.8
2022-11-17T11:24:20.033Z,4.64
2022-11-17T11:25:19.870Z,1.84
2022-11-17T11:26:20.936Z,1.44
2022-11-17T11:27:20.521Z,4.16
2022-11-17T11:28:20.662Z,2
2022-11-17T11:29:20.808Z,1.04
2022-11-17T11:30:21.184Z,2
2022-11-17T11:31:20.643Z,1.6
2022-11-17T11:32:21.177Z,2.24
2022-11-17T11:33:21.291Z,2
2022-11-17T11:34:21.445Z,1.6
2022-11-17T11:35:21.616Z,1.6
2022-11-17T11:36:21.744Z,2
2022-11-17T11:37:21.855Z,1.2
2022-11-17T11:38:22.021Z,5.6
2022-11-17T11:39:22.203Z,3.44
2022-11-17T11:40:22.329Z,2.24
2022-11-17T11:41:22.443Z,2.8
2022-11-17T11:42:22.599Z,1.44
2022-11-17T11:43:22.793Z,1.6
2022-11-17T11:44:22.937Z,2.8
2022-11-17T11:45:23.358Z,1.84
2022-11-17T11:46:22.789Z,0.8
2022-11-17T11:47:23.326Z,2.24
2022-11-17T11:48:23.485Z,1.44
2022-11-17T11:49:23.588Z,3.2
2022-11-17T11:50:23.706Z,1.84
2022-11-17T11:51:23.850Z,2.8
2022-11-17T11:52:23.639Z,1.6
2022-11-17T11:53:24.146Z,1.04
2022-11-17T11:54:24.278Z,1.44
2022-11-17T11:55:24.346Z,0.8
2022-11-17T11:56:24.507Z,2
2022-11-17T11:57:24.663Z,1.2
2022-11-17T11:58:24.855Z,1.84
2022-11-17T11:59:24.983Z,2.8
2022-11-17T12:00:25.396Z,1.6
2022-11-17T12:01:24.840Z,3.2
2022-11-17T12:02:25.383Z,2.4
2022-11-17T12:03:25.746Z,0.8
2022-11-17T12:04:25.670Z,2.8
2022-11-17T12:05:25.770Z,4.4
2022-11-17T12:06:25.909Z,1.6
2022-11-17T12:07:26.059Z,2.24
2022-11-17T12:08:26.223Z,1.6
2022-11-17T12:09:26.422Z,1.04
2022-11-17T12:10:26.527Z,5.84
2022-11-17T12:11:26.661Z,1.6
2022-11-17T12:12:26.784Z,5.2
2022-11-17T12:13:26.958Z,2.4
2022-11-17T12:14:27.133Z,1.84
2022-11-17T12:15:27.494Z,2
2022-11-17T12:16:27.059Z,4.16
2022-11-17T12:17:27.583Z,1.2
2022-11-17T12:18:27.823Z,1.84
2022-11-17T12:19:28.021Z,1.6
2022-11-17T12:20:28.096Z,2
2022-11-17T12:21:28.185Z,2.24
2022-11-17T12:22:28.297Z,2
2022-11-17T12:23:28.486Z,3.2
2022-11-17T12:24:28.650Z,2
2022-11-17T12:25:28.747Z,2
2022-11-17T12:26:28.992Z,2
2022-11-17T12:27:29.054Z,1.04
2022-11-17T12:28:29.200Z,2.24
2022-11-17T12:29:29.360Z,1.84
2022-11-17T12:30:29.707Z,3.44
2022-11-17T12:31:29.231Z,3.44
2022-11-17T12:32:29.757Z,2
2022-11-17T12:33:30.158Z,1.84
2022-11-17T12:34:30.073Z,1.84
2022-11-17T12:35:30.247Z,4
2022-11-17T12:36:31.267Z,2.24
2022-11-17T12:37:30.481Z,2
2022-11-17T12:38:30.198Z,2
2022-11-17T12:39:30.299Z,2
2022-11-17T12:40:30.470Z,2.24
2022-11-17T12:41:30.961Z,2.4
2022-11-17T12:42:31.123Z,2.4
2022-11-17T12:43:31.190Z,1.6
2022-11-17T12:44:31.377Z,1.84
2022-11-17T12:45:31.737Z,2.64
2022-11-17T12:46:31.256Z,1.44
2022-11-17T12:47:31.358Z,4
2022-11-17T12:48:34.286Z,2.24
2022-11-17T12:49:31.999Z,1.44
2022-11-17T12:50:32.218Z,3.6
2022-11-17T12:51:32.385Z,2
2022-11-17T12:52:32.657Z,4.64
2022-11-17T12:53:32.232Z,2.64
2022-11-17T12:54:32.362Z,3.44
2022-11-17T12:55:32.926Z,2.64
2022-11-17T12:56:33.045Z,3.84
2022-11-17T12:57:33.096Z,3.84
2022-11-17T12:58:33.249Z,3.84
2022-11-17T12:59:33.800Z,1.2
2022-11-17T13:00:33.128Z,2.24
2022-11-17T13:01:33.733Z,1.84
2022-11-17T13:02:33.807Z,2.64
2022-11-17T13:03:33.954Z,2.4
2022-11-17T13:04:34.056Z,2.64
2022-11-17T13:05:34.220Z,2.8
2022-11-17T13:06:36.183Z,2.64
2022-11-17T13:07:34.614Z,3.84
2022-11-17T13:08:34.722Z,2
2022-11-17T13:09:34.882Z,2.8
2022-11-17T13:10:35.094Z,1.44
2022-11-17T13:11:35.680Z,2.4
2022-11-17T13:12:35.370Z,2.64
2022-11-17T13:13:37.090Z,2.24
2022-11-17T13:14:35.835Z,1.44
2022-11-17T13:15:35.264Z,3.44
2022-11-17T13:16:35.874Z,3.44
2022-11-17T13:17:35.977Z,2
2022-11-17T13:18:36.124Z,2.24
2022-11-17T13:19:36.213Z,1.84
2022-11-17T13:20:36.348Z,2.4
2022-11-17T13:21:36.542Z,1.6
2022-11-17T13:22:40.600Z,1.84
2022-11-17T13:23:36.834Z,2.64
2022-11-17T13:24:36.989Z,2.8
2022-11-17T13:25:37.203Z,2
2022-11-17T13:26:37.400Z,3.84
2022-11-17T13:27:37.497Z,1.44
2022-11-17T13:28:37.600Z,2.24
2022-11-17T13:29:37.928Z,1.2
2022-11-17T13:30:37.440Z,4
2022-11-17T13:31:37.584Z,2.24
2022-11-17T13:32:37.715Z,1.6
2022-11-17T13:33:40.362Z,2.64
2022-11-17T13:34:38.689Z,1.84
2022-11-17T13:35:38.555Z,2.8
2022-11-17T13:36:38.663Z,1.6
2022-11-17T13:37:38.815Z,1.6
2022-11-17T13:38:38.912Z,1.04
2022-11-17T13:39:39.082Z,1.44
2022-11-17T13:40:39.519Z,1.6
2022-11-17T13:41:39.628Z,2.64
2022-11-17T13:42:39.654Z,2.4
2022-11-17T13:43:39.821Z,1.84
2022-11-17T13:44:40.114Z,2.24
2022-11-17T13:45:39.557Z,1.6
2022-11-17T13:46:40.227Z,4
2022-11-17T13:47:40.214Z,2
2022-11-17T13:48:40.485Z,1.44
2022-11-17T13:49:40.683Z,1.44
2022-11-17T13:50:40.682Z,2.64
2022-11-17T13:51:40.918Z,2
2022-11-17T13:52:46.648Z,2.64
2022-11-17T13:53:40.702Z,1.6
2022-11-17T13:54:40.845Z,2.4
2022-11-17T13:55:41.499Z,2
2022-11-17T13:56:41.695Z,1.44
2022-11-17T13:57:41.961Z,2.24
2022-11-17T13:58:41.482Z,2
2022-11-17T13:59:42.691Z,2.64
2022-11-17T14:00:41.731Z,2.24
2022-11-17T14:01:42.541Z,2.4
2022-11-17T14:02:42.600Z,2.8
2022-11-17T14:03:42.720Z,1.6
2022-11-17T14:04:42.915Z,3.6
2022-11-17T14:05:43.013Z,1.44
2022-11-17T14:06:43.157Z,2
2022-11-17T14:07:43.307Z,3.2
2022-11-17T14:08:43.052Z,1.44
2022-11-17T14:09:43.616Z,2
2022-11-17T14:10:43.816Z,1.44
2022-11-17T14:11:43.746Z,1.44
2022-11-17T14:12:43.672Z,3.44
2022-11-17T14:13:44.117Z,1.44
2022-11-17T14:14:44.492Z,1.6
2022-11-17T14:15:45.796Z,1.44
2022-11-17T14:16:44.771Z,2.24
2022-11-17T14:17:44.680Z,2